Time;durP1;ratioP1;P1;durP2;ratioP2;P2;SDS_P1;SDS_P2;PMS_P1;PMS_P2;Temp;Humidity;BMP_temperature;BMP_pressure;BME280_temperature;BME280_humidity;BME280_pressure;Samples;Min_cycle;Max_cycle;Signal;HPM_P1;HPM_P2
2021/05/26 00:00:58;;;;;;;5.27;4.53;;;10.30;99.90;;;;;;5056818;28;20182;-71
2021/05/26 00:03:25;;;;;;;5.17;4.37;;;10.30;99.90;;;;;;5056744;28;20724;-71
2021/05/26 00:05:50;;;;;;;8.10;4.80;;;10.40;99.90;;;;;;5057002;28;20423;-72
2021/05/26 00:08:30;;;;;;;6.70;5.20;;;10.40;99.90;;;;;;5056940;28;20420;-72
2021/05/26 00:10:57;;;;;;;7.00;4.90;;;10.30;99.90;;;;;;5069211;28;20225;-72
2021/05/26 00:13:23;;;;;;;6.13;5.53;;;10.10;99.90;;;;;;5078522;28;20466;-72
2021/05/26 00:15:49;;;;;;;7.10;5.17;;;10.00;99.90;;;;;;5070572;28;20436;-71
2021/05/26 00:18:15;;;;;;;9.00;5.77;;;10.10;99.90;;;;;;5056875;28;20424;-72
2021/05/26 00:20:41;;;;;;;6.10;5.23;;;10.10;99.90;;;;;;5057006;28;20543;-72
2021/05/26 00:23:07;;;;;;;6.80;4.63;;;10.10;99.90;;;;;;5055253;28;20777;-72
2021/05/26 00:25:32;;;;;;;6.07;4.70;;;10.20;99.90;;;;;;5056459;28;20442;-71
2021/05/26 00:27:58;;;;;;;6.20;4.63;;;10.20;99.90;;;;;;5056909;28;20502;-72
2021/05/26 00:30:30;;;;;;;6.43;3.93;;;10.20;99.90;;;;;;5055926;28;20240;-71
2021/05/26 00:32:57;;;;;;;7.03;4.60;;;10.20;99.90;;;;;;5056697;28;20485;-71
2021/05/26 00:35:23;;;;;;;7.83;4.93;;;10.30;99.90;;;;;;5056847;28;20917;-72
2021/05/26 00:37:49;;;;;;;4.97;4.07;;;10.30;99.90;;;;;;5056849;28;20941;-71
2021/05/26 00:40:16;;;;;;;5.10;4.03;;;10.40;99.90;;;;;;5055987;28;20965;-71
2021/05/26 00:42:41;;;;;;;4.20;3.80;;;10.40;99.90;;;;;;5055812;28;20182;-71
2021/05/26 00:45:08;;;;;;;4.73;3.77;;;10.40;99.90;;;;;;5055786;28;20432;-72
2021/05/26 00:47:46;;;;;;;5.80;4.00;;;10.40;99.90;;;;;;5056396;28;20200;-71
2021/05/26 00:50:17;;;;;;;5.97;3.87;;;10.40;99.90;;;;;;5056233;28;20809;-72
2021/05/26 00:52:44;;;;;;;3.97;3.47;;;10.50;99.90;;;;;;5056090;28;20459;-72
2021/05/26 00:55:15;;;;;;;4.80;3.67;;;10.40;99.90;;;;;;5055785;28;20523;-72
2021/05/26 00:57:41;;;;;;;3.90;3.47;;;10.30;99.90;;;;;;5056071;28;20524;-72
2021/05/26 01:00:09;;;;;;;4.50;4.10;;;10.30;99.90;;;;;;5055073;28;20568;-72
2021/05/26 01:02:35;;;;;;;3.80;3.50;;;10.40;99.90;;;;;;5055587;28;20186;-72
2021/05/26 01:05:01;;;;;;;3.80;3.30;;;10.40;99.90;;;;;;5055542;28;20451;-71
2021/05/26 01:07:26;;;;;;;7.30;4.70;;;10.40;99.90;;;;;;5056479;28;20557;-72
2021/05/26 01:09:52;;;;;;;6.10;4.50;;;10.30;99.90;;;;;;5054660;28;20789;-71
2021/05/26 01:12:17;;;;;;;6.30;5.03;;;10.20;99.90;;;;;;5055419;28;20170;-72
2021/05/26 01:14:43;;;;;;;6.13;4.80;;;10.20;99.90;;;;;;5055317;28;20805;-72
2021/05/26 01:17:08;;;;;;;5.17;4.40;;;10.30;99.90;;;;;;5055939;28;20620;-72
2021/05/26 01:19:34;;;;;;;7.57;4.73;;;10.40;99.90;;;;;;5049195;28;20182;-71
2021/05/26 01:21:59;;;;;;;5.70;4.73;;;10.30;99.90;;;;;;5039065;28;20575;-72
2021/05/26 01:24:25;;;;;;;6.33;4.10;;;10.40;99.90;;;;;;5033975;28;20532;-71
2021/05/26 01:26:51;;;;;;;6.67;4.40;;;10.50;99.90;;;;;;5035390;28;20517;-71
2021/05/26 01:29:17;;;;;;;5.63;4.60;;;10.50;99.90;;;;;;5035744;28;20178;-71
2021/05/26 01:31:43;;;;;;;5.20;4.37;;;10.50;99.90;;;;;;5052672;28;20663;-72
2021/05/26 01:34:09;;;;;;;7.60;4.70;;;10.50;99.90;;;;;;5054553;28;20487;-72
2021/05/26 01:36:35;;;;;;;6.90;4.10;;;10.50;99.90;;;;;;5054829;28;20815;-72
2021/05/26 01:39:03;;;;;;;7.00;4.37;;;10.50;99.90;;;;;;5055254;28;20170;-72
2021/05/26 01:41:29;;;;;;;7.60;5.33;;;10.40;99.90;;;;;;5054797;28;20206;-72
2021/05/26 01:43:55;;;;;;;8.60;4.70;;;10.40;99.90;;;;;;5055051;28;20405;-72
2021/05/26 01:46:21;;;;;;;5.80;4.70;;;10.50;99.90;;;;;;5055115;28;20598;-72
2021/05/26 01:48:48;;;;;;;8.70;4.90;;;10.50;99.90;;;;;;5054509;28;20181;-72
2021/05/26 01:51:14;;;;;;;6.80;5.27;;;10.40;99.90;;;;;;5054353;28;20474;-72
2021/05/26 01:53:40;;;;;;;6.90;4.77;;;10.40;99.90;;;;;;5058372;28;20413;-71
2021/05/26 01:56:20;;;;;;;7.10;4.10;;;10.40;99.90;;;;;;5059843;28;20821;-72
2021/05/26 01:58:53;;;;;;;8.63;5.10;;;10.50;99.90;;;;;;5054901;28;20182;-72
2021/05/26 02:01:21;;;;;;;8.37;4.60;;;10.50;99.90;;;;;;5055117;28;20483;-72
2021/05/26 02:03:47;;;;;;;5.90;4.20;;;10.60;99.90;;;;;;5053776;28;20909;-72
2021/05/26 02:06:13;;;;;;;5.37;4.10;;;10.60;99.90;;;;;;5054242;28;20427;-73
2021/05/26 02:08:40;;;;;;;10.70;4.70;;;10.60;99.90;;;;;;5054456;28;20487;-72
2021/05/26 02:13:50;;;;;;;5.27;4.40;;;10.50;99.90;;;;;;5047268;28;20407;-72
2021/05/26 02:16:16;;;;;;;4.73;4.30;;;10.60;99.90;;;;;;5053553;28;20800;-72
2021/05/26 02:18:42;;;;;;;5.43;4.90;;;10.60;99.90;;;;;;5056904;28;20170;-70
2021/05/26 02:21:07;;;;;;;7.23;5.10;;;10.60;99.90;;;;;;5058399;28;20273;-72
2021/05/26 02:23:33;;;;;;;6.93;4.23;;;10.60;99.90;;;;;;5055867;28;20582;-72
2021/05/26 02:25:59;;;;;;;4.77;4.03;;;10.60;99.90;;;;;;5054783;28;20187;-72
2021/05/26 02:28:24;;;;;;;6.03;4.63;;;10.70;99.90;;;;;;5056134;28;20416;-72
2021/05/26 02:30:50;;;;;;;7.60;6.33;;;10.70;99.90;;;;;;5054484;28;20174;-72
2021/05/26 02:33:16;;;;;;;6.60;4.20;;;10.70;99.90;;;;;;5053826;28;20191;-72
2021/05/26 02:35:41;;;;;;;7.50;5.30;;;10.70;99.90;;;;;;5053670;28;20194;-72
2021/05/26 02:38:07;;;;;;;8.05;5.20;;;10.70;99.90;;;;;;5053090;28;20412;-72
2021/05/26 02:40:33;;;;;;;5.83;4.70;;;10.80;99.90;;;;;;5054437;28;20201;-72
2021/05/26 02:43:00;;;;;;;7.00;5.17;;;10.70;99.90;;;;;;5053336;28;20251;-72
2021/05/26 02:45:26;;;;;;;6.17;5.07;;;10.70;99.90;;;;;;5053682;28;20444;-72
2021/05/26 02:47:51;;;;;;;6.63;4.90;;;10.60;99.90;;;;;;5054082;28;20405;-73
2021/05/26 02:50:17;;;;;;;8.83;4.90;;;10.50;99.90;;;;;;5053912;28;20174;-71
2021/05/26 02:52:44;;;;;;;7.47;5.50;;;10.50;99.90;;;;;;5053979;28;20181;-72
2021/05/26 02:55:10;;;;;;;8.37;5.63;;;10.50;99.90;;;;;;5052751;28;20566;-72
2021/05/26 02:57:36;;;;;;;9.30;5.43;;;10.50;99.90;;;;;;5053689;28;20454;-72
2021/05/26 03:00:03;;;;;;;10.50;4.97;;;10.50;99.90;;;;;;5053310;28;20468;-71
2021/05/26 03:02:29;;;;;;;9.13;5.23;;;10.50;99.90;;;;;;5053238;28;20178;-71
2021/05/26 03:04:54;;;;;;;7.40;5.63;;;10.50;99.90;;;;;;5052985;28;20490;-71
2021/05/26 03:07:20;;;;;;;11.30;5.33;;;10.60;99.90;;;;;;5053503;28;20213;-72
2021/05/26 03:09:45;;;;;;;5.87;5.13;;;10.60;99.90;;;;;;5052517;28;20181;-72
2021/05/26 03:12:11;;;;;;;11.20;6.07;;;10.60;99.90;;;;;;5052317;28;20194;-72
2021/05/26 03:14:37;;;;;;;7.10;5.60;;;10.50;99.90;;;;;;5052732;28;20205;-72
2021/05/26 03:17:02;;;;;;;9.33;5.60;;;10.50;99.90;;;;;;5053485;28;20205;-72
2021/05/26 03:19:28;;;;;;;11.27;6.67;;;10.50;99.90;;;;;;5053702;28;20579;-71
2021/05/26 03:21:53;;;;;;;12.23;6.90;;;10.50;99.90;;;;;;5054017;28;20177;-72
2021/05/26 03:24:19;;;;;;;9.10;6.70;;;10.50;99.90;;;;;;5052916;28;20193;-71
2021/05/26 03:26:45;;;;;;;10.20;7.13;;;10.60;99.90;;;;;;5051568;28;20689;-71
2021/05/26 03:29:11;;;;;;;11.07;7.23;;;10.50;99.90;;;;;;5046172;28;20528;-72
2021/05/26 03:31:36;;;;;;;11.23;6.30;;;10.50;99.90;;;;;;5052614;28;20420;-72
2021/05/26 03:34:03;;;;;;;7.10;6.40;;;10.60;99.90;;;;;;5057259;28;20261;-72
2021/05/26 03:36:28;;;;;;;8.50;6.10;;;10.50;99.90;;;;;;5056817;28;20225;-72
2021/05/26 03:38:54;;;;;;;9.30;7.10;;;10.60;99.90;;;;;;5056766;28;20495;-72
2021/05/26 03:41:19;;;;;;;11.17;7.00;;;10.60;99.90;;;;;;5060666;28;20625;-71
2021/05/26 03:43:46;;;;;;;6.87;6.17;;;10.50;99.90;;;;;;5077448;28;20158;-71
2021/05/26 03:46:11;;;;;;;10.10;5.87;;;10.50;99.90;;;;;;5073682;28;20181;-71
2021/05/26 03:48:37;;;;;;;9.17;6.50;;;10.50;99.90;;;;;;5065561;28;20416;-71
2021/05/26 03:51:03;;;;;;;9.73;5.73;;;10.50;99.90;;;;;;5057171;28;20259;-71
2021/05/26 03:53:29;;;;;;;11.43;6.85;;;10.50;99.90;;;;;;5056144;28;20458;-71
2021/05/26 03:55:55;;;;;;;8.00;6.40;;;10.50;99.90;;;;;;5057077;28;20214;-72
2021/05/26 03:58:20;;;;;;;7.83;5.77;;;10.50;99.90;;;;;;5048941;28;20687;-72
2021/05/26 04:00:46;;;;;;;8.60;6.20;;;10.50;99.90;;;;;;5042571;28;20449;-72
2021/05/26 04:03:11;;;;;;;6.83;5.60;;;10.40;99.90;;;;;;5037163;28;20207;-72
2021/05/26 04:05:37;;;;;;;8.10;6.07;;;10.50;99.90;;;;;;5037089;28;20226;-72
2021/05/26 04:08:02;;;;;;;7.40;6.40;;;10.50;99.90;;;;;;5043392;28;20178;-72
2021/05/26 04:10:28;;;;;;;7.30;6.50;;;10.40;99.90;;;;;;5057433;28;20253;-72
2021/05/26 04:12:53;;;;;;;10.43;6.37;;;10.40;99.90;;;;;;5057024;28;20171;-71
2021/05/26 04:15:19;;;;;;;10.07;6.83;;;10.40;99.90;;;;;;5056613;28;20190;-72
2021/05/26 04:17:44;;;;;;;9.60;7.53;;;10.30;99.90;;;;;;5056536;28;20166;-72
2021/05/26 04:20:10;;;;;;;7.60;6.90;;;10.30;99.90;;;;;;5056802;28;20201;-72
2021/05/26 04:22:37;;;;;;;7.87;6.00;;;10.30;99.90;;;;;;5056578;28;20185;-72
2021/05/26 04:25:04;;;;;;;9.90;6.20;;;10.30;99.90;;;;;;5056692;28;20425;-71
2021/05/26 04:27:30;;;;;;;7.60;6.50;;;10.30;99.90;;;;;;5056216;28;20428;-71
2021/05/26 04:29:56;;;;;;;5.90;5.40;;;10.40;99.90;;;;;;5054955;28;20439;-71
2021/05/26 04:32:21;;;;;;;7.53;6.37;;;10.40;99.90;;;;;;5056196;28;20170;-71
2021/05/26 04:34:47;;;;;;;6.57;5.83;;;10.40;99.90;;;;;;5054977;28;20466;-71
2021/05/26 04:37:13;;;;;;;7.23;5.30;;;10.50;99.90;;;;;;5056015;28;20184;-72
2021/05/26 04:39:38;;;;;;;5.93;5.33;;;10.40;99.90;;;;;;5054910;28;20188;-72
2021/05/26 04:42:04;;;;;;;6.83;5.43;;;10.50;99.90;;;;;;5056564;28;20178;-71
2021/05/26 04:44:30;;;;;;;8.13;5.00;;;10.50;99.90;;;;;;5056628;28;20241;-71
2021/05/26 04:46:56;;;;;;;5.43;4.93;;;10.50;99.90;;;;;;5052796;28;20476;-71
2021/05/26 04:49:22;;;;;;;6.80;5.30;;;10.50;99.90;;;;;;5045036;28;20183;-71
2021/05/26 04:51:47;;;;;;;6.43;5.20;;;10.50;99.90;;;;;;5052611;28;20320;-71
2021/05/26 04:54:12;;;;;;;6.20;5.60;;;10.60;99.90;;;;;;5056165;28;20403;-71
2021/05/26 04:56:38;;;;;;;5.50;5.00;;;10.60;99.90;;;;;;5053982;28;20215;-71
2021/05/26 04:59:04;;;;;;;7.53;5.60;;;10.50;99.90;;;;;;5047182;28;20250;-71
2021/05/26 05:01:29;;;;;;;6.10;5.50;;;10.50;99.90;;;;;;5035934;28;20199;-72
2021/05/26 05:03:55;;;;;;;7.10;5.83;;;10.40;99.90;;;;;;5035579;28;20585;-72
2021/05/26 05:06:23;;;;;;;6.20;5.27;;;10.40;99.90;;;;;;5035941;28;20191;-72
2021/05/26 05:08:48;;;;;;;5.90;5.40;;;10.50;99.90;;;;;;5043448;28;20236;-72
2021/05/26 05:11:14;;;;;;;7.40;5.00;;;10.60;99.90;;;;;;5043428;28;20433;-72
2021/05/26 05:13:40;;;;;;;6.37;4.50;;;10.60;99.90;;;;;;5046208;28;20182;-70
2021/05/26 05:16:05;;;;;;;6.43;4.30;;;10.70;99.90;;;;;;5049709;28;20206;-70
2021/05/26 05:18:31;;;;;;;9.90;5.40;;;10.70;99.90;;;;;;5047389;28;20261;-71
2021/05/26 05:20:56;;;;;;;7.50;5.00;;;10.80;99.90;;;;;;5041358;28;20597;-72
2021/05/26 05:23:22;;;;;;;6.97;5.17;;;10.80;99.90;;;;;;5042923;28;20412;-72
2021/05/26 05:25:47;;;;;;;8.07;4.80;;;10.80;99.90;;;;;;5035170;28;20194;-72
2021/05/26 05:28:13;;;;;;;5.77;4.90;;;10.90;99.90;;;;;;5036943;28;20298;-71
2021/05/26 05:30:38;;;;;;;5.90;4.37;;;10.90;99.90;;;;;;5053811;28;20178;-72
2021/05/26 05:33:04;;;;;;;4.83;4.43;;;10.90;99.90;;;;;;5065680;28;20193;-70
2021/05/26 05:35:30;;;;;;;6.80;6.10;;;11.00;99.90;;;;;;5061025;28;20231;-72
2021/05/26 05:37:57;;;;;;;6.37;5.47;;;10.90;99.90;;;;;;5075330;28;20169;-71
2021/05/26 05:40:23;;;;;;;9.10;5.70;;;11.00;99.90;;;;;;5063941;28;20663;-71
2021/05/26 05:42:48;;;;;;;8.60;5.27;;;11.00;99.90;;;;;;5055185;28;20474;-72
2021/05/26 05:45:14;;;;;;;6.00;5.30;;;11.10;99.90;;;;;;5054742;28;20638;-72
2021/05/26 05:47:40;;;;;;;7.83;4.80;;;11.00;99.90;;;;;;5052877;28;20182;-73
2021/05/26 05:50:14;;;;;;;5.57;4.90;;;11.00;99.90;;;;;;5043587;28;20205;-73
2021/05/26 05:52:40;;;;;;;5.40;4.23;;;11.00;99.90;;;;;;5048955;28;20186;-75
2021/05/26 05:55:07;;;;;;;5.87;4.83;;;11.00;99.90;;;;;;5049545;28;20873;-71
2021/05/26 05:57:32;;;;;;;7.00;3.80;;;11.10;99.90;;;;;;5055709;28;20504;-73
2021/05/26 05:59:58;;;;;;;3.60;3.30;;;11.20;99.90;;;;;;5055840;28;20567;-73
2021/05/26 06:02:24;;;;;;;4.20;3.80;;;11.20;99.90;;;;;;5057480;28;20237;-73
2021/05/26 06:04:49;;;;;;;4.27;3.53;;;11.30;99.90;;;;;;5065149;28;20212;-72
2021/05/26 06:07:15;;;;;;;4.93;3.53;;;11.40;99.90;;;;;;5052667;28;20264;-71
2021/05/26 06:09:40;;;;;;;4.63;3.57;;;11.40;99.90;;;;;;5050964;28;20257;-72
2021/05/26 06:12:06;;;;;;;4.50;3.30;;;11.50;99.90;;;;;;5049641;28;20534;-72
2021/05/26 06:14:32;;;;;;;3.37;3.07;;;11.70;99.90;;;;;;5048337;28;20620;-72
2021/05/26 06:16:57;;;;;;;3.63;3.10;;;11.90;99.90;;;;;;5050676;28;20494;-72
2021/05/26 06:19:23;;;;;;;10.07;3.10;;;12.00;99.90;;;;;;5050438;28;20219;-73
2021/05/26 06:21:48;;;;;;;3.10;2.90;;;12.00;99.90;;;;;;5048866;28;20899;-72
2021/05/26 06:24:14;;;;;;;3.43;3.13;;;12.00;99.90;;;;;;5049476;28;20926;-72
2021/05/26 06:26:39;;;;;;;3.37;3.00;;;12.10;99.90;;;;;;5051277;28;20170;-72
2021/05/26 06:29:05;;;;;;;3.10;2.90;;;12.10;99.90;;;;;;5050645;28;20181;-72
2021/05/26 06:31:32;;;;;;;3.63;2.70;;;12.20;99.90;;;;;;5049904;28;20206;-72
2021/05/26 06:33:58;;;;;;;5.10;2.73;;;12.20;99.90;;;;;;5050039;28;20413;-73
2021/05/26 06:36:24;;;;;;;3.80;3.20;;;12.10;99.90;;;;;;5042279;28;20442;-72
2021/05/26 06:38:49;;;;;;;4.33;3.60;;;12.20;99.90;;;;;;5051293;28;20360;-73
2021/05/26 06:41:15;;;;;;;3.43;3.03;;;12.20;99.90;;;;;;5070212;28;20558;-73
2021/05/26 06:43:41;;;;;;;3.60;3.30;;;12.20;99.90;;;;;;5057625;28;20209;-72
2021/05/26 06:46:06;;;;;;;3.00;2.70;;;12.30;99.90;;;;;;5050054;28;20198;-73
2021/05/26 06:48:32;;;;;;;4.93;2.97;;;12.20;99.90;;;;;;5049787;28;20287;-73
2021/05/26 06:50:57;;;;;;;3.93;3.53;;;12.30;99.90;;;;;;5049910;28;20938;-72
2021/05/26 06:53:25;;;;;;;3.57;3.27;;;12.40;99.90;;;;;;5048257;28;20190;-73
2021/05/26 06:55:51;;;;;;;3.20;2.70;;;12.40;99.90;;;;;;5049301;28;20658;-73
2021/05/26 06:58:16;;;;;;;5.47;2.90;;;12.50;99.90;;;;;;5048013;28;20878;-73
2021/05/26 07:00:42;;;;;;;4.43;3.27;;;12.60;99.90;;;;;;5049420;28;20452;-73
2021/05/26 07:03:09;;;;;;;5.00;3.47;;;12.70;99.90;;;;;;5048356;28;20254;-73
2021/05/26 07:05:35;;;;;;;3.10;2.90;;;12.60;99.90;;;;;;5048641;28;20198;-73
2021/05/26 07:08:00;;;;;;;8.17;3.70;;;12.50;99.90;;;;;;5049419;28;20747;-73
2021/05/26 07:10:26;;;;;;;4.03;3.10;;;12.60;99.90;;;;;;5049219;28;20332;-73
2021/05/26 07:12:52;;;;;;;3.70;3.40;;;12.60;99.90;;;;;;5049288;28;20193;-73
2021/05/26 07:15:19;;;;;;;8.13;4.00;;;12.60;99.90;;;;;;5049040;28;20202;-73
2021/05/26 07:17:45;;;;;;;3.97;3.60;;;12.50;99.90;;;;;;5049410;28;20907;-72
2021/05/26 07:20:12;;;;;;;4.27;3.30;;;12.50;99.90;;;;;;5048684;28;20488;-72
2021/05/26 07:22:38;;;;;;;4.43;3.70;;;12.30;99.90;;;;;;5049347;28;20421;-72
2021/05/26 07:25:04;;;;;;;6.43;4.50;;;12.30;99.90;;;;;;5048662;28;20502;-72
2021/05/26 07:27:29;;;;;;;4.60;4.20;;;12.10;99.90;;;;;;5048775;28;20194;-73
2021/05/26 07:29:55;;;;;;;4.37;3.63;;;12.20;99.90;;;;;;5049421;28;20420;-73
2021/05/26 07:32:20;;;;;;;5.00;3.70;;;12.20;99.90;;;;;;5049527;28;20572;-72
2021/05/26 07:34:46;;;;;;;4.13;3.73;;;12.30;99.90;;;;;;5049564;28;20194;-73
2021/05/26 07:37:11;;;;;;;7.10;3.77;;;12.30;99.90;;;;;;5049620;28;20178;-72
2021/05/26 07:39:37;;;;;;;4.53;4.13;;;12.40;99.90;;;;;;5057066;28;20187;-74
2021/05/26 07:42:04;;;;;;;4.20;3.90;;;12.30;99.90;;;;;;5038074;28;20212;-73
2021/05/26 07:44:30;;;;;;;5.60;3.80;;;12.20;99.90;;;;;;5032571;28;20989;-72
2021/05/26 07:46:55;;;;;;;4.43;4.13;;;12.30;99.90;;;;;;5035731;28;20436;-73
2021/05/26 07:49:22;;;;;;;4.47;4.07;;;12.30;99.90;;;;;;5049280;28;20413;-72
2021/05/26 07:51:52;;;;;;;4.80;4.40;;;12.40;99.90;;;;;;5048378;28;20209;-72
2021/05/26 07:54:23;;;;;;;5.00;4.60;;;12.40;99.90;;;;;;5049333;28;20486;-72
2021/05/26 07:56:58;;;;;;;5.10;4.70;;;12.50;99.90;;;;;;5049515;28;20167;-73
2021/05/26 07:59:23;;;;;;;5.60;4.40;;;12.60;99.90;;;;;;5043891;28;20523;-72
2021/05/26 08:01:49;;;;;;;4.80;4.30;;;12.60;99.90;;;;;;5030910;28;20552;-73
2021/05/26 08:04:14;;;;;;;5.90;4.10;;;12.60;99.90;;;;;;5032231;28;20198;-73
2021/05/26 08:06:40;;;;;;;4.83;4.37;;;12.50;99.90;;;;;;5032171;28;20602;-73
2021/05/26 08:09:06;;;;;;;5.30;4.90;;;12.50;99.90;;;;;;5044642;28;20182;-72
2021/05/26 08:11:31;;;;;;;6.50;5.90;;;12.40;99.90;;;;;;5053082;28;20178;-72
2021/05/26 08:13:57;;;;;;;7.97;6.83;;;12.50;99.90;;;;;;5054446;28;20911;-72
2021/05/26 08:16:24;;;;;;;10.80;8.03;;;12.50;99.90;;;;;;5056906;28;20206;-72
2021/05/26 08:18:49;;;;;;;8.70;7.50;;;12.50;99.90;;;;;;5046781;28;20578;-73
2021/05/26 08:21:17;;;;;;;9.80;7.47;;;12.40;99.90;;;;;;5054412;28;20460;-72
2021/05/26 08:23:43;;;;;;;13.37;7.77;;;12.50;99.90;;;;;;5053788;28;20400;-72
2021/05/26 08:26:12;;;;;;;6.97;6.47;;;12.40;99.90;;;;;;5053740;28;20499;-73
2021/05/26 08:28:38;;;;;;;7.00;5.83;;;12.40;99.90;;;;;;5054018;28;20413;-72
2021/05/26 08:31:04;;;;;;;5.87;5.33;;;12.40;99.90;;;;;;5053792;28;20447;-73
2021/05/26 08:33:30;;;;;;;6.97;6.27;;;12.50;99.90;;;;;;5054063;28;20491;-73
2021/05/26 08:35:55;;;;;;;7.07;6.27;;;12.60;99.90;;;;;;5054484;28;20515;-72
2021/05/26 08:38:21;;;;;;;6.17;5.70;;;12.60;99.90;;;;;;5056126;28;20173;-71
2021/05/26 08:40:46;;;;;;;6.33;5.77;;;12.80;99.90;;;;;;5062515;28;20204;-72
2021/05/26 08:43:16;;;;;;;4.70;4.30;;;12.60;99.90;;;;;;5055945;28;20238;-71
2021/05/26 08:45:42;;;;;;;4.20;3.80;;;12.80;99.90;;;;;;5055882;28;20209;-72
2021/05/26 08:48:12;;;;;;;4.00;3.60;;;12.90;99.90;;;;;;5056304;28;20401;-71
2021/05/26 08:50:39;;;;;;;3.83;3.27;;;12.90;99.90;;;;;;5055132;28;20436;-72
2021/05/26 08:53:05;;;;;;;3.77;3.17;;;12.80;99.90;;;;;;5056372;28;20417;-71
2021/05/26 08:55:31;;;;;;;3.17;2.97;;;13.00;99.90;;;;;;5055786;28;20928;-72
2021/05/26 08:57:59;;;;;;;3.63;3.03;;;13.20;99.90;;;;;;5055765;28;20162;-72
2021/05/26 09:00:25;;;;;;;3.30;3.10;;;13.30;99.90;;;;;;5056495;28;20992;-72
2021/05/26 09:02:50;;;;;;;4.50;2.90;;;13.30;99.90;;;;;;5056009;28;20459;-71
2021/05/26 09:05:28;;;;;;;5.20;3.10;;;13.50;99.90;;;;;;5056172;28;20683;-73
2021/05/26 09:07:55;;;;;;;3.53;2.80;;;13.50;99.90;;;;;;5054620;28;20162;-72
2021/05/26 09:10:21;;;;;;;3.77;3.30;;;13.70;99.90;;;;;;5055880;28;20412;-73
2021/05/26 09:12:47;;;;;;;4.33;3.60;;;13.70;99.90;;;;;;5055143;28;20421;-72
2021/05/26 09:15:20;;;;;;;3.27;3.00;;;13.60;99.90;;;;;;5045321;28;20215;-73
2021/05/26 09:17:49;;;;;;;3.30;3.00;;;13.50;99.90;;;;;;5035110;28;20416;-73
2021/05/26 09:20:26;;;;;;;2.67;2.57;;;13.70;99.90;;;;;;5035709;28;20686;-73
2021/05/26 09:23:01;;;;;;;3.10;2.90;;;13.80;99.90;;;;;;5039753;28;20429;-71
2021/05/26 09:25:28;;;;;;;3.97;3.57;;;13.80;99.90;;;;;;5055285;28;20424;-73
2021/05/26 09:28:13;;;;;;;3.30;3.10;;;13.80;99.90;;;;;;5055545;28;20397;-72
2021/05/26 09:30:39;;;;;;;3.40;3.10;;;13.80;99.90;;;;;;5054060;28;20417;-71
2021/05/26 09:33:28;;;;;;;4.20;3.47;;;13.80;99.90;;;;;;5055518;28;20408;-74
2021/05/26 09:36:18;;;;;;;3.40;3.20;;;13.80;99.90;;;;;;5048474;28;20190;-74
2021/05/26 09:38:58;;;;;;;3.33;3.13;;;14.00;99.90;;;;;;5040088;28;20474;-72
2021/05/26 09:41:29;;;;;;;3.17;3.00;;;13.90;99.90;;;;;;5059017;28;20455;-72
2021/05/26 09:43:57;;;;;;;3.80;3.50;;;14.00;99.90;;;;;;5050736;28;20440;-72
2021/05/26 09:46:27;;;;;;;3.37;3.17;;;14.10;99.90;;;;;;5051457;28;20432;-72
2021/05/26 09:49:13;;;;;;;3.73;3.50;;;14.10;99.90;;;;;;5045613;28;20439;-72
2021/05/26 09:51:50;;;;;;;3.40;3.20;;;14.10;99.90;;;;;;5033587;28;20429;-72
2021/05/26 09:54:24;;;;;;;2.90;2.70;;;14.10;99.90;;;;;;5046569;28;20824;-73
2021/05/26 09:57:04;;;;;;;2.70;2.60;;;14.00;99.90;;;;;;5052203;28;20420;-72
2021/05/26 09:59:31;;;;;;;3.10;2.90;;;14.10;99.90;;;;;;5048387;28;20480;-72
2021/05/26 10:01:58;;;;;;;2.90;2.50;;;14.40;99.90;;;;;;5031682;28;21063;-72
2021/05/26 10:04:24;;;;;;;2.60;2.50;;;14.70;99.90;;;;;;5033206;28;20930;-72
2021/05/26 10:06:53;;;;;;;2.60;2.10;;;14.80;99.60;;;;;;5034392;28;20410;-72
2021/05/26 10:09:21;;;;;;;2.60;2.20;;;14.80;99.10;;;;;;5043715;28;20409;-72
2021/05/26 10:11:47;;;;;;;2.40;2.23;;;14.90;99.00;;;;;;5054027;28;20432;-72
2021/05/26 10:14:16;;;;;;;2.40;2.20;;;14.90;98.60;;;;;;5053939;28;20875;-72
2021/05/26 10:16:42;;;;;;;3.33;2.10;;;14.70;98.50;;;;;;5053864;28;20497;-72
2021/05/26 10:19:09;;;;;;;2.67;2.00;;;14.60;98.60;;;;;;5053532;28;20427;-71
2021/05/26 10:21:36;;;;;;;1.80;1.70;;;14.40;99.10;;;;;;5052842;28;20976;-71
2021/05/26 10:24:06;;;;;;;1.90;1.80;;;14.20;99.70;;;;;;5053698;28;20432;-72
2021/05/26 10:26:46;;;;;;;2.03;1.80;;;14.10;99.90;;;;;;5053856;28;20421;-72
2021/05/26 10:29:27;;;;;;;3.08;2.08;;;13.90;99.90;;;;;;5052467;28;20408;-71
2021/05/26 10:31:53;;;;;;;1.80;1.70;;;13.80;99.90;;;;;;5054415;28;20239;-72
2021/05/26 10:34:19;;;;;;;2.67;2.10;;;13.80;99.90;;;;;;5053326;28;20425;-72
2021/05/26 10:36:52;;;;;;;2.03;1.70;;;14.00;99.90;;;;;;5053628;28;20428;-72
2021/05/26 10:39:31;;;;;;;2.03;1.93;;;14.20;99.90;;;;;;5058180;28;20584;-72
2021/05/26 10:41:57;;;;;;;1.80;1.70;;;14.60;99.90;;;;;;5057964;28;20463;-72
2021/05/26 10:44:42;;;;;;;1.57;1.47;;;14.70;99.90;;;;;;5053236;28;20783;-72
2021/05/26 10:47:41;;;;;;;1.47;1.37;;;14.80;99.40;;;;;;5053124;28;20894;-72
2021/05/26 10:50:34;;;;;;;1.50;1.40;;;15.00;98.40;;;;;;5053047;28;20520;-72
2021/05/26 10:53:01;;;;;;;1.60;1.50;;;15.00;98.50;;;;;;5053498;28;20440;-72
2021/05/26 10:55:47;;;;;;;2.03;1.77;;;15.00;98.10;;;;;;5053437;28;20472;-72
2021/05/26 10:58:24;;;;;;;2.10;1.70;;;15.00;98.10;;;;;;5048675;28;20460;-72
2021/05/26 11:01:10;;;;;;;1.40;1.30;;;15.00;98.60;;;;;;5053265;28;20456;-71
2021/05/26 11:03:43;;;;;;;1.70;1.60;;;15.20;98.30;;;;;;5054590;28;20420;-72
2021/05/26 11:06:18;;;;;;;1.60;1.50;;;15.30;98.40;;;;;;5054954;28;20453;-72
2021/05/26 11:08:49;;;;;;;2.10;1.87;;;15.20;98.10;;;;;;5053237;28;20939;-72
2021/05/26 11:11:56;;;;;;;1.80;1.70;;;15.20;98.40;;;;;;5052891;28;20439;-73
2021/05/26 11:14:18;;;;;;;2.70;2.00;;;15.00;98.70;;;;;;5052885;28;20962;-72
2021/05/26 11:16:47;;;;;;;1.63;1.53;;;15.20;98.70;;;;;;5053345;28;20893;-72
2021/05/26 11:19:23;;;;;;;2.47;2.27;;;15.20;98.60;;;;;;5052630;28;20492;-71
2021/05/26 11:21:57;;;;;;;1.60;1.50;;;15.00;98.70;;;;;;5053283;28;20459;-71
2021/05/26 11:24:25;;;;;;;1.90;1.80;;;15.10;98.80;;;;;;5052368;28;20515;-72
2021/05/26 11:26:51;;;;;;;2.40;2.20;;;15.10;98.70;;;;;;5052450;28;20447;-71
2021/05/26 11:29:30;;;;;;;1.70;1.60;;;15.30;98.80;;;;;;5053907;28;20198;-71
2021/05/26 11:32:19;;;;;;;2.00;1.90;;;15.30;99.10;;;;;;5052300;28;20466;-71
2021/05/26 11:34:50;;;;;;;2.33;2.13;;;15.40;98.80;;;;;;5052747;28;20551;-73
2021/05/26 11:37:41;;;;;;;2.83;1.90;;;15.60;98.60;;;;;;5052848;28;20419;-71
2021/05/26 11:40:25;;;;;;;2.27;1.87;;;15.50;98.50;;;;;;5064455;28;20455;-71
2021/05/26 11:42:53;;;;;;;1.50;1.40;;;15.50;98.50;;;;;;5072660;28;20415;-71
2021/05/26 11:45:19;;;;;;;1.63;1.40;;;15.50;98.50;;;;;;5061643;28;20456;-72
2021/05/26 11:47:47;;;;;;;1.50;1.40;;;15.20;97.70;;;;;;5045574;28;20408;-72
2021/05/26 11:50:13;;;;;;;1.47;1.37;;;15.00;97.60;;;;;;5051835;28;20486;-72
2021/05/26 11:52:42;;;;;;;1.80;1.70;;;14.90;98.20;;;;;;5052598;28;20416;-71
2021/05/26 11:55:08;;;;;;;1.70;1.60;;;14.80;98.20;;;;;;5058258;28;20234;-71
2021/05/26 11:57:36;;;;;;;1.80;1.50;;;14.70;98.60;;;;;;5053156;28;20440;-71
2021/05/26 12:00:18;;;;;;;2.90;1.60;;;14.80;98.70;;;;;;5053617;28;20468;-71
2021/05/26 12:02:56;;;;;;;2.77;1.70;;;14.80;99.00;;;;;;5059076;28;20412;-73
2021/05/26 12:05:35;;;;;;;2.20;2.00;;;14.90;98.80;;;;;;5064199;28;20444;-72
2021/05/26 12:08:01;;;;;;;2.40;1.70;;;15.00;98.70;;;;;;5055516;28;20481;-73
2021/05/26 12:10:30;;;;;;;1.50;1.40;;;15.20;98.50;;;;;;5068343;28;20435;-73
2021/05/26 12:13:02;;;;;;;1.80;1.70;;;15.30;98.40;;;;;;5074310;28;20269;-72
2021/05/26 12:15:28;;;;;;;3.17;1.67;;;15.20;98.50;;;;;;5074253;28;20459;-73
2021/05/26 12:17:57;;;;;;;1.90;1.70;;;15.20;98.80;;;;;;5074341;28;20432;-72
2021/05/26 12:20:23;;;;;;;1.40;1.40;;;15.30;99.10;;;;;;5073218;28;20467;-72
2021/05/26 12:22:50;;;;;;;3.70;1.80;;;15.40;98.90;;;;;;5066668;28;20424;-72
2021/05/26 12:25:17;;;;;;;1.70;1.60;;;15.60;98.80;;;;;;5055817;28;20202;-71
2021/05/26 12:27:45;;;;;;;1.70;1.60;;;15.60;98.60;;;;;;5052807;28;20452;-71
2021/05/26 12:30:15;;;;;;;2.20;2.10;;;15.70;98.40;;;;;;5052223;28;20416;-72
2021/05/26 12:32:42;;;;;;;2.00;1.90;;;15.70;98.20;;;;;;5052518;28;20236;-72
2021/05/26 12:35:18;;;;;;;1.43;1.33;;;15.70;98.30;;;;;;5053396;28;20460;-72
2021/05/26 12:37:47;;;;;;;1.83;1.73;;;15.50;98.70;;;;;;5053478;28;20419;-73
2021/05/26 12:40:23;;;;;;;2.10;2.00;;;15.50;98.60;;;;;;5065224;28;20447;-71
2021/05/26 12:42:48;;;;;;;2.70;1.90;;;15.50;98.60;;;;;;5072215;28;20749;-72
2021/05/26 12:45:31;;;;;;;2.93;2.13;;;15.50;99.00;;;;;;5071781;28;20440;-72
2021/05/26 12:47:59;;;;;;;1.80;1.70;;;15.50;99.00;;;;;;5072506;28;20674;-72
2021/05/26 12:50:29;;;;;;;1.60;1.50;;;15.70;98.80;;;;;;5049441;28;20956;-72
2021/05/26 12:53:06;;;;;;;3.90;3.00;;;15.80;98.60;;;;;;5052112;28;20408;-72